Time;durP1;ratioP1;P1;durP2;ratioP2;P2;SDS_P1;SDS_P2;PMS_P1;PMS_P2;Temp;Humidity;BMP_temperature;BMP_pressure;BME280_temperature;BME280_humidity;BME280_pressure;Samples;Min_cycle;Max_cycle;Signal;HPM_P1;HPM_P2
2021/11/13 00:01:49;;;;;;;51.35;25.70;;;;;;;7.13;94.08;101192.02;1663934;85;26374;-84
2021/11/13 00:04:16;;;;;;;57.35;25.25;;;;;;;7.12;94.12;101186.36;1651505;85;25888;-82
2021/11/13 00:06:43;;;;;;;56.20;26.70;;;;;;;7.12;94.34;101184.52;1627886;86;26678;-83
2021/11/13 00:09:14;;;;;;;54.53;25.57;;;;;;;7.11;94.25;101188.18;1632313;86;25883;-83
2021/11/13 00:11:39;;;;;;;60.98;27.73;;;;;;;7.12;94.33;101185.03;1662978;85;27491;-83
2021/11/13 00:14:06;;;;;;;53.42;24.95;;;;;;;7.12;94.42;101181.84;1613326;85;26001;-83
2021/11/13 00:16:34;;;;;;;57.48;25.40;;;;;;;7.15;94.50;101184.23;1646629;85;25871;-83
2021/11/13 00:19:01;;;;;;;66.10;29.40;;;;;;;7.14;94.34;101180.39;1612490;86;26508;-83
2021/11/13 00:21:29;;;;;;;54.40;26.05;;;;;;;7.13;94.57;101183.54;1666052;84;26173;-83
2021/11/13 00:23:56;;;;;;;55.28;25.37;;;;;;;7.11;94.51;101177.53;1637674;86;28289;-83
2021/11/13 00:26:23;;;;;;;60.12;26.90;;;;;;;7.09;94.50;101182.66;1659299;85;25781;-83
2021/11/13 00:28:50;;;;;;;57.17;27.10;;;;;;;7.10;94.63;101181.16;1631168;86;26588;-83
2021/11/13 00:31:18;;;;;;;62.80;27.37;;;;;;;7.10;94.68;101173.69;1664619;85;25881;-83
2021/11/13 00:33:45;;;;;;;53.10;26.02;;;;;;;7.07;94.61;101170.83;1613022;85;25353;-83
2021/11/13 00:36:12;;;;;;;61.90;27.17;;;;;;;7.07;94.67;101170.83;1622618;85;27577;-83
2021/11/13 00:38:39;;;;;;;69.53;30.77;;;;;;;7.07;94.72;101172.64;1634778;86;25932;-84
2021/11/13 00:41:06;;;;;;;69.40;27.73;;;;;;;7.07;94.74;101181.97;1639464;84;25972;-83
2021/11/13 00:43:33;;;;;;;68.78;29.72;;;;;;;7.06;94.76;101184.30;1610630;85;26002;-83
2021/11/13 00:46:01;;;;;;;73.57;32.70;;;;;;;7.05;94.86;101182.61;1638030;85;25998;-82
2021/11/13 00:48:28;;;;;;;63.17;27.87;;;;;;;7.07;95.01;101188.63;1648460;85;28399;-83
2021/11/13 00:50:55;;;;;;;84.30;35.25;;;;;;;7.07;94.98;101188.14;1616284;86;25462;-83
2021/11/13 00:53:22;;;;;;;74.67;32.40;;;;;;;7.09;94.97;101194.64;1632686;86;25878;-83
2021/11/13 00:55:49;;;;;;;71.10;31.73;;;;;;;7.09;94.93;101187.50;1634261;86;26973;-83
2021/11/13 00:58:16;;;;;;;80.10;31.30;;;;;;;7.09;94.93;101183.98;1663647;85;25890;-83
2021/11/13 01:00:43;;;;;;;70.75;32.73;;;;;;;7.08;94.95;101185.80;1590750;85;27409;-83
2021/11/13 01:03:10;;;;;;;68.87;31.70;;;;;;;7.10;95.05;101175.84;1614401;85;25822;-83
2021/11/13 01:05:37;;;;;;;68.83;29.50;;;;;;;7.11;94.98;101168.20;1638812;85;26586;-82
2021/11/13 01:08:05;;;;;;;70.57;29.23;;;;;;;7.10;94.81;101167.84;1664155;86;26524;-83
2021/11/13 01:10:32;;;;;;;72.82;31.30;;;;;;;7.09;94.77;101156.86;1628766;85;26014;-83
2021/11/13 01:13:00;;;;;;;67.03;30.70;;;;;;;7.08;94.72;101149.03;1612291;85;27663;-83
2021/11/13 01:15:27;;;;;;;79.65;29.18;;;;;;;7.06;94.72;101141.16;1635210;85;25867;-82
2021/11/13 01:17:57;;;;;;;66.30;27.42;;;;;;;7.03;94.59;101138.83;1662027;85;25910;-83
2021/11/13 01:20:26;;;;;;;61.45;26.90;;;;;;;7.00;94.63;101138.63;1591985;86;25828;-83
2021/11/13 01:22:53;;;;;;;67.82;28.23;;;;;;;6.98;94.67;101135.77;1631245;85;25918;-83
2021/11/13 01:25:20;;;;;;;58.45;24.65;;;;;;;6.97;94.75;101132.77;1627694;86;27548;-83
2021/11/13 01:27:47;;;;;;;66.20;26.40;;;;;;;6.96;94.84;101143.06;1663620;85;25923;-83
2021/11/13 01:30:15;;;;;;;70.83;29.92;;;;;;;6.95;94.89;101134.72;1627218;86;25402;-83
2021/11/13 01:32:43;;;;;;;68.33;27.42;;;;;;;6.97;94.99;101142.91;1636749;86;25873;-83
2021/11/13 01:35:11;;;;;;;69.03;28.75;;;;;;;7.00;94.96;101141.29;1636171;86;25395;-83
2021/11/13 01:37:38;;;;;;;69.50;28.80;;;;;;;6.98;94.94;101130.44;1660979;85;27463;-83
2021/11/13 01:40:10;;;;;;;80.40;30.10;;;;;;;6.98;94.98;101133.09;1619143;85;26571;-83
2021/11/13 01:42:38;;;;;;;74.32;29.02;;;;;;;6.97;95.05;101128.78;1635559;85;26535;-82
2021/11/13 01:45:08;;;;;;;76.35;28.87;;;;;;;6.95;95.03;101126.24;1650538;85;26358;-83
2021/11/13 01:47:35;;;;;;;75.60;31.27;;;;;;;6.96;95.11;101131.93;1656578;85;25888;-83
2021/11/13 01:50:16;;;;;;;75.75;30.10;;;;;;;6.98;95.14;101128.63;1580711;86;27508;-83
2021/11/13 01:52:45;;;;;;;74.65;29.70;;;;;;;6.98;95.17;101128.63;1652702;85;25838;-83
2021/11/13 01:55:14;;;;;;;62.23;26.25;;;;;;;6.96;95.14;101119.09;1627985;85;26609;-83
2021/11/13 01:57:45;;;;;;;64.95;27.20;;;;;;;6.95;95.09;101113.41;1661151;85;25871;-83
2021/11/13 02:00:29;;;;;;;57.20;25.65;;;;;;;6.94;94.99;101111.75;1609724;86;25783;-82
2021/11/13 02:02:56;;;;;;;65.12;27.40;;;;;;;6.95;95.06;101114.75;1680460;84;27469;-83
2021/11/13 02:05:24;;;;;;;60.30;24.57;;;;;;;6.92;94.99;101117.24;1661866;85;25583;-83
2021/11/13 02:07:51;;;;;;;64.72;27.15;;;;;;;6.93;95.08;101110.91;1664873;85;25779;-83
2021/11/13 02:10:21;;;;;;;65.57;25.60;;;;;;;6.96;95.07;101104.45;1655862;84;25963;-83
2021/11/13 02:12:48;;;;;;;63.00;26.60;;;;;;;6.96;95.06;101101.30;1646683;85;25869;-84
2021/11/13 02:15:15;;;;;;;64.50;27.00;;;;;;;6.97;95.09;101092.30;1634228;85;27543;-83
2021/11/13 02:17:43;;;;;;;62.65;26.33;;;;;;;6.97;95.05;101094.97;1665564;85;26144;-83
2021/11/13 02:20:27;;;;;;;71.17;28.42;;;;;;;6.96;95.04;101091.98;1611704;86;25374;-83
2021/11/13 02:22:59;;;;;;;65.75;26.62;;;;;;;6.98;95.08;101093.15;1655154;86;26402;-84
2021/11/13 02:25:31;;;;;;;69.45;29.00;;;;;;;6.98;95.09;101097.14;1638315;86;25792;-83
2021/11/13 02:27:59;;;;;;;68.00;28.17;;;;;;;6.98;95.14;101092.66;1665802;85;27659;-83
2021/11/13 02:30:28;;;;;;;75.80;30.15;;;;;;;6.97;95.15;101090.16;1624313;86;25847;-83
2021/11/13 02:32:55;;;;;;;68.02;29.27;;;;;;;7.00;95.21;101095.16;1661173;85;25881;-83
2021/11/13 02:35:27;;;;;;;62.53;25.50;;;;;;;7.00;95.23;101095.16;1621428;85;26619;-83
2021/11/13 02:37:54;;;;;;;64.15;27.10;;;;;;;7.03;95.38;101097.54;1662567;85;25927;-83
2021/11/13 02:40:22;;;;;;;74.92;27.70;;;;;;;7.02;95.23;101094.52;1629857;86;27674;-84
2021/11/13 02:42:51;;;;;;;71.60;29.00;;;;;;;7.03;95.27;101087.38;1662056;85;26258;-84
2021/11/13 02:45:18;;;;;;;69.70;28.25;;;;;;;7.03;95.30;101083.70;1649275;85;25374;-83
2021/11/13 02:47:50;;;;;;;71.40;26.77;;;;;;;7.06;95.36;101091.89;1619114;85;25915;-83
2021/11/13 02:50:18;;;;;;;66.95;28.17;;;;;;;7.08;95.34;101083.77;1625641;86;25863;-83
2021/11/13 02:52:53;;;;;;;61.77;25.95;;;;;;;7.06;95.13;101081.75;1665526;85;28316;-82
2021/11/13 02:55:22;;;;;;;68.75;25.15;;;;;;;7.03;95.13;101072.23;1606943;86;25394;-83
2021/11/13 02:57:50;;;;;;;75.17;27.22;;;;;;;7.00;95.24;101079.19;1612018;86;25843;-83
2021/11/13 03:00:22;;;;;;;67.20;26.57;;;;;;;6.97;95.29;101084.83;1643200;85;26123;-83
2021/11/13 03:02:51;;;;;;;74.87;26.90;;;;;;;6.95;95.42;101078.30;1656240;85;25922;-83
2021/11/13 03:05:35;;;;;;;70.62;27.93;;;;;;;6.96;95.53;101080.48;1620025;85;27577;-83
2021/11/13 03:08:05;;;;;;;70.78;28.25;;;;;;;6.96;95.53;101081.33;1624459;85;25897;-83
2021/11/13 03:10:36;;;;;;;78.55;28.23;;;;;;;6.98;95.68;101078.02;1645909;86;26941;-83
2021/11/13 03:13:04;;;;;;;67.10;26.75;;;;;;;6.96;95.55;101084.48;1655767;85;25915;-82
2021/11/13 03:15:31;;;;;;;71.30;27.95;;;;;;;6.96;95.59;101084.48;1627662;87;25472;-82
2021/11/13 03:17:59;;;;;;;67.95;27.30;;;;;;;6.98;95.65;101082.50;1605493;86;27482;-83
2021/11/13 03:20:30;;;;;;;71.67;29.05;;;;;;;6.98;95.61;101087.34;1606742;85;26616;-83
2021/11/13 03:23:01;;;;;;;;;;;;;;;7.00;95.59;101080.03;1670801;85;25924;-83
2021/11/13 03:25:33;;;;;;;72.40;28.95;;;;;;;6.98;95.61;101088.67;1661519;85;25888;-83
2021/11/13 03:28:05;;;;;;;84.62;29.95;;;;;;;6.97;95.69;101088.31;1622570;85;25947;-82
2021/11/13 03:30:34;;;;;;;77.92;31.40;;;;;;;7.00;95.72;101084.52;1672143;85;27774;-84
2021/11/13 03:33:01;;;;;;;82.57;28.27;;;;;;;7.00;95.65;101081.36;1650352;86;25968;-83
2021/11/13 03:35:29;;;;;;;79.97;31.73;;;;;;;7.00;95.59;101078.70;1636710;86;26081;-83
2021/11/13 03:38:10;;;;;;;84.70;32.35;;;;;;;6.95;95.46;101074.31;1614070;86;26715;-83
2021/11/13 03:40:40;;;;;;;68.33;28.15;;;;;;;6.90;95.37;101074.44;1663758;85;26048;-83
2021/11/13 03:43:08;;;;;;;66.53;27.48;;;;;;;6.88;95.42;101073.27;1659982;85;28109;-83
2021/11/13 03:45:37;;;;;;;66.00;27.65;;;;;;;6.86;95.44;101061.09;1637932;86;26383;-83
2021/11/13 03:48:05;;;;;;;58.68;25.20;;;;;;;6.84;95.41;101061.73;1637174;86;25911;-83
2021/11/13 03:50:32;;;;;;;57.17;24.65;;;;;;;6.82;95.28;101060.53;1665941;84;25799;-83
2021/11/13 03:53:01;;;;;;;56.83;25.70;;;;;;;6.80;95.20;101055.85;1624639;85;25815;-83
2021/11/13 03:55:30;;;;;;;55.15;25.90;;;;;;;6.81;95.24;101060.69;1634409;85;27612;-83
2021/11/13 03:57:58;;;;;;;53.90;26.52;;;;;;;6.83;95.15;101060.89;1620059;85;25336;-83
2021/11/13 04:00:27;;;;;;;53.42;25.88;;;;;;;6.82;94.89;101054.39;1663394;85;25849;-83
2021/11/13 04:02:54;;;;;;;53.23;26.33;;;;;;;6.81;94.76;101051.38;1652089;84;25812;-83
2021/11/13 04:05:21;;;;;;;51.53;25.70;;;;;;;6.80;94.60;101050.53;1593772;87;25969;-81
2021/11/13 04:07:50;;;;;;;51.90;24.65;;;;;;;6.80;94.51;101049.20;1647301;86;27667;-83
2021/11/13 04:10:18;;;;;;;50.73;24.60;;;;;;;6.78;94.39;101034.36;1680419;84;25711;-83
2021/11/13 04:12:46;;;;;;;58.63;27.95;;;;;;;6.78;94.37;101031.20;1652556;84;25335;-83
2021/11/13 04:15:14;;;;;;;56.45;26.17;;;;;;;6.76;94.23;101045.17;1679810;84;26520;-83
2021/11/13 04:17:42;;;;;;;52.40;26.48;;;;;;;6.76;94.27;101050.49;1655083;86;25919;-83
2021/11/13 04:20:11;;;;;;;53.78;27.60;;;;;;;6.75;94.22;101056.82;1667512;85;27539;-83
2021/11/13 04:22:39;;;;;;;58.48;28.45;;;;;;;6.76;94.33;101050.49;1625515;85;25863;-83
2021/11/13 04:25:07;;;;;;;57.15;27.82;;;;;;;6.79;94.28;101032.05;1646627;85;25850;-83
2021/11/13 04:27:34;;;;;;;59.67;29.48;;;;;;;6.82;94.32;101030.43;1666669;85;26590;-83
2021/11/13 04:30:06;;;;;;;60.63;28.83;;;;;;;6.81;94.18;101025.59;1656477;85;43373;-83
2021/11/13 04:32:35;;;;;;;63.35;30.15;;;;;;;6.80;94.18;101027.89;1617869;85;27541;-83
2021/11/13 04:37:45;;;;;;;65.28;30.65;;;;;;;6.83;94.26;101045.41;1665848;85;25353;-83
2021/11/13 04:40:15;;;;;;;65.62;30.55;;;;;;;6.80;94.36;101045.20;1683169;84;25909;-83
2021/11/13 04:42:42;;;;;;;66.07;28.77;;;;;;;6.80;94.43;101045.72;1646395;85;26022;-83
2021/11/13 04:45:10;;;;;;;72.65;30.57;;;;;;;6.80;94.45;101057.19;1634697;85;27676;-84
2021/11/13 04:47:37;;;;;;;59.85;26.20;;;;;;;6.81;94.53;101057.55;1677744;84;26065;-82
2021/11/13 04:50:08;;;;;;;64.85;30.37;;;;;;;6.84;94.53;101057.73;1686133;84;25917;-83
2021/11/13 04:52:35;;;;;;;;;;;;;;;6.84;94.34;101061.73;1653441;85;25777;-83
2021/11/13 04:55:03;;;;;;;54.60;26.50;;;;;;;6.84;94.16;101068.39;1648786;86;26555;-82
2021/11/13 04:57:30;;;;;;;52.15;26.65;;;;;;;6.80;93.91;101063.03;1662032;85;27497;-83
2021/11/13 04:59:58;;;;;;;57.50;29.40;;;;;;;6.78;93.78;101051.66;1681252;84;25912;-82
2021/11/13 05:02:25;;;;;;;59.93;29.98;;;;;;;6.75;93.64;101055.98;1646833;84;25879;-83
2021/11/13 05:04:54;;;;;;;66.53;32.25;;;;;;;6.73;93.69;101049.97;1630264;84;26519;-83
2021/11/13 05:07:23;;;;;;;62.38;28.77;;;;;;;6.71;93.66;101054.13;1655260;85;26012;-83
2021/11/13 05:09:52;;;;;;;58.50;29.12;;;;;;;6.70;93.72;101052.44;1667222;84;27571;-83
2021/11/13 05:12:19;;;;;;;60.65;28.98;;;;;;;6.70;93.86;101045.78;1617976;84;25881;-83
2021/11/13 05:14:48;;;;;;;63.33;31.23;;;;;;;6.71;93.89;101042.62;1650187;84;25846;-83
2021/11/13 05:17:15;;;;;;;62.33;30.02;;;;;;;6.72;94.01;101037.14;1671587;84;26589;-83
2021/11/13 05:19:42;;;;;;;62.23;29.52;;;;;;;6.73;93.90;101044.16;1655865;84;25886;-83
2021/11/13 05:22:09;;;;;;;69.10;30.50;;;;;;;6.72;93.92;101045.12;1636986;84;28381;-83
2021/11/13 05:24:36;;;;;;;67.45;31.48;;;;;;;6.71;93.92;101050.13;1614440;86;26478;-83
2021/11/13 05:27:04;;;;;;;59.15;28.23;;;;;;;6.72;93.90;101045.61;1665349;84;25974;-83
2021/11/13 05:29:31;;;;;;;66.22;31.35;;;;;;;6.71;93.87;101024.84;1650855;84;25971;-83
2021/11/13 05:31:59;;;;;;;75.50;33.63;;;;;;;6.71;93.85;101022.66;1625241;86;25412;-83
2021/11/13 05:34:26;;;;;;;70.95;33.05;;;;;;;6.70;93.91;101014.31;1590684;87;27401;-83
2021/11/13 05:36:53;;;;;;;63.08;31.02;;;;;;;6.67;93.78;101018.12;1661828;85;26196;-83
2021/11/13 05:39:21;;;;;;;73.45;34.33;;;;;;;6.64;93.77;101019.77;1652635;84;26516;-83
2021/11/13 05:41:48;;;;;;;68.42;33.78;;;;;;;6.63;93.78;101026.58;1615368;87;25830;-84
2021/11/13 05:44:17;;;;;;;64.03;32.42;;;;;;;6.62;93.87;101043.04;1616093;85;25748;-82
2021/11/13 05:46:45;;;;;;;65.40;32.42;;;;;;;6.62;93.87;101052.84;1665646;85;27483;-83
2021/11/13 05:49:12;;;;;;;66.00;33.28;;;;;;;6.63;93.90;101053.20;1660901;85;25799;-84
2021/11/13 05:51:39;;;;;;;62.45;31.85;;;;;;;6.63;93.83;101058.00;1635303;85;25823;-83
2021/11/13 05:54:06;;;;;;;74.40;33.78;;;;;;;6.64;93.76;101072.16;1629073;85;25736;-83
2021/11/13 05:56:34;;;;;;;59.98;30.52;;;;;;;6.65;93.80;101063.20;1666007;85;25945;-83
2021/11/13 05:59:01;;;;;;;64.42;32.40;;;;;;;6.67;93.85;101041.27;1660517;85;27467;-83
2021/11/13 06:01:30;;;;;;;55.63;29.37;;;;;;;6.66;93.74;101039.08;1631076;85;26104;-83
2021/11/13 06:03:57;;;;;;;73.83;33.28;;;;;;;6.64;93.63;101047.72;1589092;85;25899;-83
2021/11/13 06:06:26;;;;;;;61.50;31.50;;;;;;;6.65;93.71;101056.03;1661807;85;25893;-83
2021/11/13 06:08:53;;;;;;;70.12;33.88;;;;;;;6.66;93.75;101042.23;1663807;85;25363;-84
2021/11/13 06:11:21;;;;;;;65.20;31.75;;;;;;;6.66;93.76;101047.56;1633960;85;27706;-83
2021/11/13 06:13:48;;;;;;;65.85;31.05;;;;;;;6.65;93.80;101050.70;1667341;84;25794;-83
2021/11/13 06:16:15;;;;;;;74.75;34.25;;;;;;;6.67;93.95;101045.25;1664474;85;25806;-83
2021/11/13 06:18:43;;;;;;;81.92;36.55;;;;;;;6.67;94.18;101047.91;1669418;85;25358;-84
2021/11/13 06:21:10;;;;;;;72.00;35.38;;;;;;;6.67;94.00;101042.59;1614952;85;25965;-84
2021/11/13 06:23:39;;;;;;;74.60;35.10;;;;;;;6.66;94.01;101043.56;1651403;85;27496;-83
2021/11/13 06:26:06;;;;;;;74.80;35.48;;;;;;;6.65;94.14;101046.71;1638340;86;25974;-83
2021/11/13 06:28:34;;;;;;;79.07;37.25;;;;;;;6.65;94.06;101060.02;1668668;85;25865;-84
2021/11/13 06:31:01;;;;;;;72.22;34.73;;;;;;;6.66;94.13;101065.70;1657738;85;25958;-83
2021/11/13 06:33:28;;;;;;;69.12;33.95;;;;;;;6.67;94.11;101078.53;1599190;86;25645;-83
2021/11/13 06:35:55;;;;;;;68.17;35.50;;;;;;;6.67;94.20;101079.34;1668386;85;28200;-83
2021/11/13 06:38:22;;;;;;;73.12;35.75;;;;;;;6.70;94.27;101069.73;1660450;85;25864;-83
2021/11/13 06:40:49;;;;;;;81.57;38.85;;;;;;;6.72;94.23;101069.58;1650788;85;26141;-83
2021/11/13 06:43:16;;;;;;;67.42;33.95;;;;;;;6.71;94.13;101067.44;1648505;85;26220;-84
2021/11/13 06:45:43;;;;;;;66.47;33.25;;;;;;;6.74;94.17;101071.59;1651865;85;25963;-83
2021/11/13 06:48:10;;;;;;;76.12;35.03;;;;;;;6.75;94.12;101078.61;1667386;85;27459;-83
2021/11/13 06:50:38;;;;;;;67.67;31.85;;;;;;;6.77;94.09;101075.30;1616503;85;26132;-83
2021/11/13 06:53:05;;;;;;;69.62;33.08;;;;;;;6.76;94.03;101049.64;1646466;85;25946;-83
2021/11/13 06:55:32;;;;;;;74.77;34.25;;;;;;;6.75;94.00;101052.83;1662926;86;25878;-83
2021/11/13 06:57:59;;;;;;;67.75;35.13;;;;;;;6.75;94.12;101061.30;1663794;86;25809;-83
2021/11/13 07:00:27;;;;;;;69.20;34.30;;;;;;;6.77;94.11;101057.99;1633246;86;28147;-83
2021/11/13 07:02:54;;;;;;;69.07;33.10;;;;;;;6.78;94.08;101047.67;1636152;86;25954;-82
2021/11/13 07:05:21;;;;;;;66.05;31.77;;;;;;;6.76;94.08;101045.17;1654105;86;26647;-84
2021/11/13 07:07:48;;;;;;;75.52;34.10;;;;;;;6.80;94.15;101056.38;1640321;85;26394;-83
2021/11/13 07:10:16;;;;;;;67.35;32.55;;;;;;;6.81;94.18;101062.02;1632664;85;26383;-83
2021/11/13 07:12:44;;;;;;;67.53;33.83;;;;;;;6.81;94.23;101075.34;1655082;85;27529;-84
2021/11/13 07:15:13;;;;;;;68.70;32.03;;;;;;;6.83;94.22;101086.67;1659271;85;25914;-84
2021/11/13 07:17:41;;;;;;;74.03;32.23;;;;;;;6.85;94.34;101082.03;1646795;85;25907;-84
2021/11/13 07:20:10;;;;;;;73.70;32.70;;;;;;;6.85;94.24;101078.88;1602032;84;25820;-84
2021/11/13 07:22:39;;;;;;;79.87;33.98;;;;;;;6.86;94.33;101084.53;1655959;84;26553;-83
2021/11/13 07:25:13;;;;;;;77.00;35.68;;;;;;;6.88;94.33;101075.92;1665675;85;27549;-83
2021/11/13 07:27:39;;;;;;;65.80;33.38;;;;;;;6.90;94.26;101076.61;1664507;85;25884;-84
2021/11/13 07:30:08;;;;;;;69.82;33.63;;;;;;;6.90;94.15;101071.77;1610806;85;26043;-84
2021/11/13 07:32:35;;;;;;;77.78;37.98;;;;;;;6.93;94.22;101061.64;1641598;85;26908;-84
2021/11/13 07:35:02;;;;;;;76.17;38.33;;;;;;;6.95;94.27;101053.00;1659800;86;26044;-83
2021/11/13 07:37:30;;;;;;;75.08;36.05;;;;;;;7.00;94.30;101053.88;1658698;85;28192;-83
2021/11/13 07:39:57;;;;;;;68.12;33.20;;;;;;;7.02;94.11;101055.90;1595155;85;25816;-83
2021/11/13 07:42:24;;;;;;;70.25;32.90;;;;;;;7.03;94.10;101049.59;1611803;86;25868;-83
2021/11/13 07:44:51;;;;;;;69.60;34.00;;;;;;;7.05;94.05;101050.28;1634494;85;26002;-84
2021/11/13 07:47:18;;;;;;;67.50;35.00;;;;;;;7.07;93.97;101052.29;1597541;86;25403;-83
2021/11/13 07:49:45;;;;;;;66.67;32.67;;;;;;;7.09;93.81;101055.64;1624315;85;27270;-83
2021/11/13 07:52:12;;;;;;;68.30;33.80;;;;;;;7.13;93.83;101062.33;1667017;85;25836;-83
2021/11/13 07:54:39;;;;;;;69.25;35.28;;;;;;;7.14;93.53;101057.36;1637877;86;25815;-83
2021/11/13 07:57:08;;;;;;;79.87;37.13;;;;;;;7.14;93.45;101048.03;1631689;85;26520;-84
2021/11/13 07:59:36;;;;;;;72.90;36.65;;;;;;;7.14;93.44;101048.03;1645034;85;25792;-83
2021/11/13 08:02:03;;;;;;;68.07;35.95;;;;;;;7.15;93.32;101046.19;1669596;85;27485;-83
2021/11/13 08:04:30;;;;;;;76.55;36.55;;;;;;;7.16;93.36;101047.88;1640019;85;26198;-83
2021/11/13 08:06:57;;;;;;;73.10;36.70;;;;;;;7.16;93.35;101043.39;1618282;86;25423;-83
2021/11/13 08:09:24;;;;;;;82.62;36.88;;;;;;;7.17;93.20;101035.72;1640703;86;26092;-85
2021/11/13 08:11:51;;;;;;;73.92;36.73;;;;;;;7.19;93.20;101042.22;1654115;86;25450;-84
2021/11/13 08:14:18;;;;;;;67.97;34.55;;;;;;;7.23;93.41;101049.75;1627796;86;27428;-84
2021/11/13 08:16:45;;;;;;;69.32;34.18;;;;;;;7.26;93.42;101044.13;1629851;86;25877;-84
2021/11/13 08:19:14;;;;;;;76.42;37.67;;;;;;;7.30;93.37;101055.30;1628401;86;26310;-84
2021/11/13 08:21:41;;;;;;;77.82;37.15;;;;;;;7.35;93.35;101050.36;1655660;85;26453;-84
2021/11/13 08:24:08;;;;;;;75.65;36.60;;;;;;;7.39;93.28;101045.05;1650939;85;26600;-84
2021/11/13 08:26:35;;;;;;;67.22;32.10;;;;;;;7.42;93.17;101040.23;1620478;85;27487;-84
2021/11/13 08:29:02;;;;;;;80.32;39.13;;;;;;;7.45;93.14;101041.77;1653229;85;25367;-83
2021/11/13 08:31:30;;;;;;;74.97;39.18;;;;;;;7.45;92.92;101029.77;1666776;84;25855;-83
2021/11/13 08:33:57;;;;;;;81.35;39.18;;;;;;;7.47;92.66;101037.11;1649621;86;25887;-82
2021/11/13 08:36:24;;;;;;;80.03;40.12;;;;;;;7.47;92.61;101027.78;1643440;86;25995;-83
2021/11/13 08:38:51;;;;;;;73.92;37.65;;;;;;;7.47;92.44;101029.95;1622640;84;28243;-83
2021/11/13 08:41:18;;;;;;;89.47;41.63;;;;;;;7.47;92.62;101032.63;1667596;84;26239;-83
2021/11/13 08:43:45;;;;;;;85.57;41.35;;;;;;;7.50;92.55;101028.81;1645122;84;25883;-84
2021/11/13 08:46:12;;;;;;;85.45;43.40;;;;;;;7.50;92.46;101021.66;1624935;86;25936;-84
2021/11/13 08:48:39;;;;;;;106.30;56.73;;;;;;;7.51;92.29;101015.80;1629536;86;26185;-84
2021/11/13 08:51:06;;;;;;;134.45;70.30;;;;;;;7.53;92.41;101009.82;1641399;86;27580;-84
2021/11/13 08:53:33;;;;;;;104.23;53.87;;;;;;;7.54;92.33;100999.02;1639909;84;25427;-84
2021/11/13 08:56:00;;;;;;;101.50;51.80;;;;;;;7.57;92.20;101002.69;1615155;84;25879;-84
2021/11/13 08:58:27;;;;;;;101.10;56.13;;;;;;;7.58;92.03;101007.53;1632615;84;26462;-84
2021/11/13 09:00:59;;;;;;;110.55;56.58;;;;;;;7.59;92.06;101005.22;1665395;84;25330;-83
2021/11/13 09:03:34;;;;;;;162.18;90.57;;;;;;;7.62;92.04;100999.06;1646965;84;27192;-83
2021/11/13 09:06:05;;;;;;;95.17;50.55;;;;;;;7.66;92.08;100996.42;1618170;86;26008;-83
2021/11/13 09:08:33;;;;;;;114.30;64.50;;;;;;;7.69;91.77;101013.45;1635548;85;25318;-83
2021/11/13 09:11:00;;;;;;;95.03;52.80;;;;;;;7.71;91.82;101022.12;1660713;85;26581;-83
2021/11/13 09:13:28;;;;;;;115.60;60.08;;;;;;;7.74;91.75;101028.45;1651977;85;25911;-84
2021/11/13 09:16:00;;;;;;;120.22;69.72;;;;;;;7.76;91.55;101018.98;1636680;86;27647;-83
2021/11/13 09:18:28;;;;;;;99.15;52.45;;;;;;;7.77;91.63;101018.81;1639973;86;25834;-83
2021/11/13 09:20:55;;;;;;;110.40;69.22;;;;;;;7.78;91.64;101013.80;1671439;85;25972;-83
2021/11/13 09:23:23;;;;;;;89.77;50.08;;;;;;;7.80;91.23;101013.14;1658532;86;25825;-83
2021/11/13 09:25:50;;;;;;;95.60;52.98;;;;;;;7.82;91.22;101020.17;1628915;86;25343;-83
2021/11/13 09:28:17;;;;;;;89.80;47.15;;;;;;;7.82;90.79;101015.67;1646018;85;27555;-83
2021/11/13 09:30:44;;;;;;;103.27;58.13;;;;;;;7.82;90.93;101017.02;1668006;85;25310;-83
2021/11/13 09:33:13;;;;;;;98.70;50.88;;;;;;;7.86;91.11;101020.19;1657549;84;25341;-84
2021/11/13 09:35:43;;;;;;;93.72;51.05;;;;;;;7.89;91.03;101018.02;1632871;85;25829;-82
2021/11/13 09:38:11;;;;;;;91.90;49.03;;;;;;;7.93;91.17;101009.23;1622819;87;25834;-83
2021/11/13 09:40:39;;;;;;;102.72;54.80;;;;;;;7.99;91.23;101010.76;1658002;85;28165;-83
2021/11/13 09:43:07;;;;;;;108.12;58.98;;;;;;;8.03;90.99;101009.44;1661399;85;25916;-83
2021/11/13 09:45:36;;;;;;;96.97;52.78;;;;;;;8.06;90.80;101015.77;1600538;86;26586;-83
2021/11/13 09:48:06;;;;;;;94.15;52.27;;;;;;;8.09;90.62;101012.80;1619147;86;25851;-83
2021/11/13 09:50:40;;;;;;;93.65;52.90;;;;;;;8.11;90.58;101004.62;1661270;86;25851;-83
2021/11/13 09:53:08;;;;;;;87.37;44.65;;;;;;;8.13;90.52;101011.47;1657007;85;28178;-83
2021/11/13 09:55:35;;;;;;;85.30;44.33;;;;;;;8.15;90.46;101002.80;1618232;85;25848;-84
2021/11/13 09:58:03;;;;;;;80.95;43.13;;;;;;;8.19;90.37;101000.15;1621567;85;25994;-83
2021/11/13 10:00:35;;;;;;;88.35;47.20;;;;;;;8.24;90.50;100999.67;1663569;85;25923;-83
2021/11/13 10:03:04;;;;;;;92.27;48.10;;;;;;;8.29;90.44;101004.06;1654057;85;25966;-83
2021/11/13 10:05:32;;;;;;;88.97;48.33;;;;;;;8.31;90.20;100998.91;1602100;86;28270;-83
2021/11/13 10:07:59;;;;;;;82.15;45.12;;;;;;;8.36;90.34;100997.09;1643838;86;25881;-83
2021/11/13 10:10:39;;;;;;;86.95;49.25;;;;;;;8.41;90.22;100994.75;1666456;85;25395;-83
2021/11/13 10:13:27;;;;;;;89.30;49.55;;;;;;;8.46;90.23;100993.27;1654295;85;25877;-83
2021/11/13 10:16:05;;;;;;;92.70;51.33;;;;;;;8.52;90.33;100993.95;1633874;86;25838;-83
2021/11/13 10:18:37;;;;;;;82.10;46.33;;;;;;;8.57;90.10;100989.95;1652472;85;27522;-83
2021/11/13 10:21:18;;;;;;;81.92;44.83;;;;;;;8.60;90.18;100989.11;1671656;85;25984;-83
2021/11/13 10:23:59;;;;;;;80.00;45.52;;;;;;;8.64;89.55;100981.63;1647651;85;26019;-84
2021/11/13 10:26:31;;;;;;;;;;;;;;;8.66;89.35;100986.30;1618495;86;25958;-83
2021/11/13 10:29:11;;;;;;;89.65;52.50;;;;;;;8.67;89.33;100983.45;1628519;86;25828;-84
2021/11/13 10:31:43;;;;;;;81.35;46.80;;;;;;;8.71;89.63;100983.95;1668693;85;28126;-84
2021/11/13 10:34:15;;;;;;;84.32;45.43;;;;;;;8.77;89.72;100979.31;1653694;85;25922;-84
2021/11/13 10:36:50;;;;;;;88.52;48.40;;;;;;;8.82;89.34;100973.79;1668683;85;25954;-84
2021/11/13 10:39:25;;;;;;;93.52;52.50;;;;;;;8.86;88.90;100970.27;1651518;86;26428;-84
2021/11/13 10:42:00;;;;;;;95.57;54.98;;;;;;;8.88;88.87;100969.11;1652368;86;25749;-82
2021/11/13 10:44:31;;;;;;;94.80;54.08;;;;;;;8.91;88.72;100962.61;1620054;85;27416;-82
2021/11/13 10:47:21;;;;;;;86.90;51.83;;;;;;;8.91;88.52;100964.78;1678863;85;25882;-84
2021/11/13 10:49:52;;;;;;;107.95;57.43;;;;;;;8.94;87.79;100960.95;1641031;86;25628;-84
2021/11/13 10:52:21;;;;;;;135.30;72.55;;;;;;;8.90;87.92;100963.09;1675304;84;25874;-84
2021/11/13 10:54:51;;;;;;;114.10;64.03;;;;;;;8.90;87.96;100959.09;1617680;86;25881;-84
2021/11/13 10:57:31;;;;;;;145.10;88.57;;;;;;;8.91;87.94;100963.45;1661459;84;27545;-85
2021/11/13 11:00:15;;;;;;;96.03;54.80;;;;;;;8.94;87.99;100960.42;1636025;84;25890;-85
2021/11/13 11:02:45;;;;;;;100.47;52.83;;;;;;;8.97;87.47;100953.42;1662003;86;26274;-83
2021/11/13 11:05:17;;;;;;;90.50;50.00;;;;;;;8.98;87.44;100956.41;1606484;86;26280;-83
2021/11/13 11:07:44;;;;;;;94.58;50.10;;;;;;;8.98;87.17;100947.58;1663072;84;25882;-83
2021/11/13 11:10:15;;;;;;;89.30;52.98;;;;;;;8.99;87.07;100955.42;1634921;86;27482;-84
2021/11/13 11:12:41;;;;;;;85.57;52.35;;;;;;;9.02;87.14;100955.09;1678026;84;25974;-84
2021/11/13 11:15:12;;;;;;;84.80;47.75;;;;;;;9.08;87.31;100949.08;1648073;85;25399;-84
2021/11/13 11:17:42;;;;;;;91.67;52.88;;;;;;;9.15;87.14;100950.05;1623598;86;25989;-84
2021/11/13 11:20:16;;;;;;;93.03;48.53;;;;;;;9.23;87.45;100951.40;1631991;86;26435;-84
2021/11/13 11:22:45;;;;;;;84.15;45.58;;;;;;;9.31;87.42;100955.39;1641699;86;27596;-84
2021/11/13 11:25:15;;;;;;;100.85;49.13;;;;;;;9.38;86.50;100944.85;1614947;86;25892;-83
2021/11/13 11:27:47;;;;;;;92.17;51.35;;;;;;;9.39;86.21;100949.17;1610839;86;25863;-84